createdAt,value
2017-12-25T00:00:22.659Z,9.57
2017-12-25T00:01:31.760Z,9.54
2017-12-25T00:02:40.591Z,9.56
2017-12-25T00:03:49.572Z,9.51
2017-12-25T00:04:58.399Z,9.53
2017-12-25T00:06:07.226Z,9.56
2017-12-25T00:07:16.057Z,9.47
2017-12-25T00:08:24.934Z,9.53
2017-12-25T00:09:33.989Z,9.51
2017-12-25T00:10:42.818Z,9.58
2017-12-25T00:11:51.648Z,9.53
2017-12-25T00:13:00.579Z,9.54
2017-12-25T00:14:09.679Z,9.51
2017-12-25T00:15:18.505Z,9.54
2017-12-25T00:16:27.335Z,9.53
2017-12-25T00:17:36.164Z,9.53
2017-12-25T00:18:44.993Z,9.48
2017-12-25T00:19:53.971Z,9.48
2017-12-25T00:21:02.799Z,9.54
2017-12-25T00:22:11.635Z,9.54
2017-12-25T00:23:20.458Z,9.51
2017-12-25T00:24:29.287Z,9.53
2017-12-25T00:25:38.117Z,9.58
2017-12-25T00:26:46.948Z,9.57
2017-12-25T00:27:55.784Z,9.54
2017-12-25T00:29:04.607Z,9.58
2017-12-25T00:30:14.061Z,9.48
2017-12-25T00:31:22.892Z,9.53
2017-12-25T00:32:31.721Z,9.5
2017-12-25T00:33:40.555Z,9.4
2017-12-25T00:34:49.385Z,9.39
2017-12-25T00:35:58.211Z,9.4
2017-12-25T00:37:07.043Z,9.38
2017-12-25T00:38:15.871Z,9.36
2017-12-25T00:39:24.699Z,9.33
2017-12-25T00:40:33.829Z,9.33
2017-12-25T00:41:42.662Z,9.31
2017-12-25T00:42:51.483Z,9.29
2017-12-25T00:44:00.315Z,9.4
2017-12-25T00:45:09.144Z,9.23
2017-12-25T00:46:17.973Z,9.23
2017-12-25T00:47:26.800Z,9.31
2017-12-25T00:48:35.631Z,9.28
2017-12-25T00:49:44.465Z,9.26
2017-12-25T00:50:53.294Z,9.26
2017-12-25T00:52:02.272Z,9.24
2017-12-25T00:53:11.101Z,9.24
2017-12-25T00:54:19.934Z,9.4
2017-12-25T00:55:28.761Z,9.28
2017-12-25T00:56:37.592Z,9.35
2017-12-25T00:57:46.420Z,9.26
2017-12-25T00:58:55.251Z,9.28
2017-12-25T01:00:04.083Z,9.26
2017-12-25T01:01:12.909Z,9.23
2017-12-25T01:02:21.736Z,9.32
2017-12-25T01:03:30.815Z,9.28
2017-12-25T01:04:39.643Z,9.33
2017-12-25T01:05:48.472Z,9.33
2017-12-25T01:06:57.302Z,9.2
2017-12-25T01:08:06.131Z,9.26
2017-12-25T01:09:14.959Z,9.24
2017-12-25T01:10:23.789Z,9.2
2017-12-25T01:11:32.625Z,9.11
2017-12-25T01:12:41.453Z,9.21
2017-12-25T01:13:50.279Z,9.05
2017-12-25T01:14:59.259Z,9.1
2017-12-25T01:16:08.090Z,9.1
2017-12-25T01:17:16.922Z,9.08
2017-12-25T01:18:25.751Z,9.17
2017-12-25T01:19:34.580Z,9.02
2017-12-25T01:20:43.708Z,9.08
2017-12-25T01:21:52.817Z,9.01
2017-12-25T01:23:01.653Z,8.96
2017-12-25T01:24:10.481Z,8.94
2017-12-25T01:25:19.313Z,8.89
2017-12-25T01:26:28.291Z,8.91
2017-12-25T01:27:37.124Z,9.01
2017-12-25T01:28:45.953Z,8.98
2017-12-25T01:29:55.334Z,8.98
2017-12-25T01:31:04.164Z,8.99
2017-12-25T01:32:13.144Z,9.01
2017-12-25T01:33:21.973Z,8.98
2017-12-25T01:34:31.076Z,8.96
2017-12-25T01:35:39.906Z,8.96
2017-12-25T01:36:48.737Z,8.96
2017-12-25T01:37:57.866Z,8.92
2017-12-25T01:39:06.694Z,8.91
2017-12-25T01:40:15.523Z,8.8
2017-12-25T01:41:24.355Z,9.01
2017-12-25T01:42:33.180Z,8.96
2017-12-25T01:43:42.111Z,8.91
2017-12-25T01:44:50.936Z,8.84
2017-12-25T01:45:59.765Z,8.94
2017-12-25T01:47:08.595Z,8.84
2017-12-25T01:48:17.431Z,8.95
2017-12-25T01:49:26.405Z,8.87
2017-12-25T01:50:35.234Z,8.91
2017-12-25T01:51:44.064Z,8.92
2017-12-25T01:52:52.896Z,8.92
2017-12-25T01:54:01.721Z,8.87
2017-12-25T01:55:10.706Z,8.89
2017-12-25T01:56:19.534Z,8.87
2017-12-25T01:57:28.358Z,8.86
2017-12-25T01:58:37.193Z,8.95
2017-12-25T01:59:46.016Z,9.01
2017-12-25T02:00:54.943Z,8.95
2017-12-25T02:02:03.772Z,8.91
2017-12-25T02:03:12.600Z,8.94
2017-12-25T02:04:21.428Z,8.84
2017-12-25T02:05:30.259Z,8.91
2017-12-25T02:06:39.510Z,8.95
2017-12-25T02:07:48.340Z,8.86
2017-12-25T02:08:57.168Z,8.87
2017-12-25T02:10:05.999Z,8.89
2017-12-25T02:11:14.828Z,8.96
2017-12-25T02:12:23.654Z,8.94
2017-12-25T02:13:32.482Z,8.84
2017-12-25T02:14:41.310Z,8.86
2017-12-25T02:15:50.139Z,8.89
2017-12-25T02:16:58.967Z,8.84
2017-12-25T02:18:07.796Z,8.91
2017-12-25T02:19:16.627Z,8.86
2017-12-25T02:20:25.452Z,8.81
2017-12-25T02:21:34.286Z,8.81
2017-12-25T02:22:43.115Z,8.76
2017-12-25T02:23:51.953Z,8.73
2017-12-25T02:25:00.786Z,8.77
2017-12-25T02:26:09.890Z,8.79
2017-12-25T02:27:18.995Z,8.79
2017-12-25T02:28:27.824Z,8.74
2017-12-25T02:29:36.800Z,8.77
2017-12-25T02:30:45.628Z,8.77
2017-12-25T02:31:54.459Z,8.8
2017-12-25T02:33:03.283Z,8.76
2017-12-25T02:34:12.112Z,8.77
2017-12-25T02:35:21.268Z,8.77
2017-12-25T02:36:30.097Z,8.76
2017-12-25T02:37:38.925Z,8.74
2017-12-25T02:38:47.750Z,8.77
2017-12-25T02:39:56.859Z,8.74
2017-12-25T02:41:05.843Z,8.79
2017-12-25T02:42:14.944Z,8.74
2017-12-25T02:43:23.771Z,8.86
2017-12-25T02:44:32.601Z,8.77
2017-12-25T02:45:41.431Z,8.74
2017-12-25T02:46:50.302Z,8.74
2017-12-25T02:47:59.131Z,8.73
2017-12-25T02:49:07.957Z,8.81
2017-12-25T02:50:16.789Z,8.76
2017-12-25T02:51:25.615Z,8.71
2017-12-25T02:52:34.541Z,8.74
2017-12-25T02:53:43.370Z,8.77
2017-12-25T02:54:52.200Z,8.73
2017-12-25T02:56:01.581Z,8.76
2017-12-25T02:57:10.411Z,8.73
2017-12-25T02:58:19.538Z,8.81
2017-12-25T02:59:28.368Z,8.71
2017-12-25T03:00:37.195Z,8.79
2017-12-25T03:01:46.023Z,8.76
2017-12-25T03:02:54.853Z,8.76
2017-12-25T03:04:03.680Z,8.77
2017-12-25T03:05:12.508Z,8.92
2017-12-25T03:06:21.337Z,8.74
2017-12-25T03:07:30.165Z,8.87
2017-12-25T03:08:39.374Z,8.86
2017-12-25T03:09:48.579Z,8.79
2017-12-25T03:10:57.403Z,8.79
2017-12-25T03:12:06.232Z,8.84
2017-12-25T03:13:15.409Z,8.86
2017-12-25T03:14:24.240Z,8.86
2017-12-25T03:15:33.223Z,8.74
2017-12-25T03:16:42.052Z,8.87
2017-12-25T03:17:50.881Z,8.84
2017-12-25T03:18:59.709Z,8.86
2017-12-25T03:20:08.538Z,8.87
2017-12-25T03:21:17.668Z,8.91
2017-12-25T03:22:26.498Z,8.84
2017-12-25T03:23:35.325Z,8.74
2017-12-25T03:24:44.151Z,8.86
2017-12-25T03:25:52.980Z,8.86
2017-12-25T03:27:01.960Z,8.77
2017-12-25T03:28:11.060Z,8.94
2017-12-25T03:29:20.163Z,8.89
2017-12-25T03:30:28.994Z,8.86
2017-12-25T03:31:37.820Z,8.89
2017-12-25T03:32:46.649Z,8.84
2017-12-25T03:33:55.479Z,8.91
2017-12-25T03:35:04.304Z,8.84
2017-12-25T03:36:13.134Z,8.86
2017-12-25T03:37:21.962Z,8.79
2017-12-25T03:38:30.792Z,8.77
2017-12-25T03:39:39.622Z,8.86
2017-12-25T03:40:48.446Z,8.77
2017-12-25T03:41:57.276Z,8.84
2017-12-25T03:43:06.104Z,8.87
2017-12-25T03:44:14.937Z,8.77
2017-12-25T03:45:23.764Z,8.77
2017-12-25T03:46:32.595Z,8.79
2017-12-25T03:47:41.697Z,8.76
2017-12-25T03:48:50.529Z,8.86
2017-12-25T03:49:59.355Z,8.87
2017-12-25T03:51:08.188Z,8.8
2017-12-25T03:52:17.012Z,8.77
2017-12-25T03:53:25.838Z,8.74
2017-12-25T03:54:34.668Z,8.83
2017-12-25T03:55:43.649Z,8.73
2017-12-25T03:56:52.526Z,8.83
2017-12-25T03:58:01.354Z,8.81
2017-12-25T03:59:10.185Z,8.81
2017-12-25T04:00:19.013Z,8.73
2017-12-25T04:01:28.416Z,8.74
2017-12-25T04:02:37.244Z,8.76
2017-12-25T04:03:46.343Z,8.74
2017-12-25T04:04:55.172Z,8.73
2017-12-25T04:06:04.003Z,8.77
2017-12-25T04:07:12.830Z,8.86
2017-12-25T04:08:21.658Z,8.86
2017-12-25T04:09:30.490Z,8.76
2017-12-25T04:10:39.317Z,8.79
2017-12-25T04:11:48.141Z,8.77
2017-12-25T04:12:57.268Z,8.76
2017-12-25T04:14:06.099Z,8.73
2017-12-25T04:15:14.927Z,8.81
2017-12-25T04:16:23.755Z,8.73
2017-12-25T04:17:32.584Z,8.79
2017-12-25T04:18:41.563Z,8.76
2017-12-25T04:19:50.392Z,8.77
2017-12-25T04:20:59.502Z,8.77
2017-12-25T04:22:08.323Z,8.68
2017-12-25T04:23:17.151Z,8.71
2017-12-25T04:24:25.982Z,8.68
2017-12-25T04:25:34.805Z,8.65
2017-12-25T04:26:43.909Z,8.66
2017-12-25T04:27:53.016Z,8.65
2017-12-25T04:29:01.845Z,8.66
2017-12-25T04:30:10.824Z,8.7
2017-12-25T04:31:19.653Z,8.59
2017-12-25T04:32:28.483Z,8.56
2017-12-25T04:33:37.311Z,8.61
2017-12-25T04:34:46.141Z,8.65
2017-12-25T04:35:55.120Z,8.63
2017-12-25T04:37:03.947Z,8.56
2017-12-25T04:38:12.775Z,8.63
2017-12-25T04:39:21.602Z,8.61
2017-12-25T04:40:30.432Z,8.58
2017-12-25T04:41:39.687Z,8.58
2017-12-25T04:42:48.513Z,8.56
2017-12-25T04:43:57.341Z,8.61
2017-12-25T04:45:06.168Z,8.59
2017-12-25T04:46:14.997Z,8.61
2017-12-25T04:47:24.397Z,8.59
2017-12-25T04:48:33.224Z,8.61
2017-12-25T04:49:42.056Z,8.53
2017-12-25T04:50:50.881Z,8.59
2017-12-25T04:51:59.706Z,8.58
2017-12-25T04:53:08.587Z,8.55
2017-12-25T04:54:17.420Z,8.58
2017-12-25T04:55:26.248Z,8.59
2017-12-25T04:56:35.078Z,8.7
2017-12-25T04:57:43.905Z,8.61
2017-12-25T04:58:52.832Z,8.71
2017-12-25T05:00:01.663Z,8.59
2017-12-25T05:01:10.491Z,8.55
2017-12-25T05:02:19.320Z,8.59
2017-12-25T05:03:28.147Z,8.61
2017-12-25T05:04:36.974Z,8.55
2017-12-25T05:05:45.801Z,8.56
2017-12-25T05:06:54.627Z,8.56
2017-12-25T05:08:03.457Z,8.58
2017-12-25T05:09:12.287Z,8.59
2017-12-25T05:10:21.212Z,8.62
2017-12-25T05:11:30.040Z,8.5
2017-12-25T05:12:38.869Z,8.44
2017-12-25T05:13:47.702Z,8.55
2017-12-25T05:14:56.527Z,8.56
2017-12-25T05:16:05.455Z,8.53
2017-12-25T05:17:14.282Z,8.43
2017-12-25T05:18:23.112Z,8.59
2017-12-25T05:19:31.941Z,8.47
2017-12-25T05:20:40.770Z,8.56
2017-12-25T05:21:49.649Z,8.55
2017-12-25T05:22:58.479Z,8.62
2017-12-25T05:24:07.305Z,8.53
2017-12-25T05:25:16.130Z,8.56
2017-12-25T05:26:24.959Z,8.59
2017-12-25T05:27:34.188Z,8.58
2017-12-25T05:28:43.294Z,8.61
2017-12-25T05:29:52.122Z,8.59
2017-12-25T05:31:00.949Z,8.59
2017-12-25T05:32:09.778Z,8.58
2017-12-25T05:33:18.907Z,8.53
2017-12-25T05:34:27.738Z,8.61
2017-12-25T05:35:36.561Z,8.58
2017-12-25T05:36:45.390Z,8.5
2017-12-25T05:37:54.273Z,8.48
2017-12-25T05:39:03.296Z,8.56
2017-12-25T05:40:12.399Z,8.56
2017-12-25T05:41:21.226Z,8.61
2017-12-25T05:42:30.056Z,8.61
2017-12-25T05:43:38.884Z,8.55
2017-12-25T05:44:48.136Z,8.56
2017-12-25T05:45:56.965Z,8.61
2017-12-25T05:47:05.794Z,8.5
2017-12-25T05:48:14.622Z,8.56
2017-12-25T05:49:23.450Z,8.56
2017-12-25T05:50:32.277Z,8.52
2017-12-25T05:51:41.105Z,8.62
2017-12-25T05:52:49.936Z,8.55
2017-12-25T05:53:58.764Z,8.52
2017-12-25T05:55:07.593Z,8.55
2017-12-25T05:56:16.672Z,8.63
2017-12-25T05:57:25.511Z,8.61
2017-12-25T05:58:34.333Z,8.59
2017-12-25T05:59:43.165Z,8.63
2017-12-25T06:00:51.989Z,8.56
2017-12-25T06:02:00.816Z,8.56
2017-12-25T06:03:09.643Z,8.59
2017-12-25T06:04:18.470Z,8.58
2017-12-25T06:05:27.298Z,8.55
2017-12-25T06:06:36.125Z,8.58
2017-12-25T06:07:45.006Z,8.61
2017-12-25T06:08:53.835Z,8.56
2017-12-25T06:10:02.664Z,8.61
2017-12-25T06:11:11.491Z,8.63
2017-12-25T06:12:20.422Z,8.65
2017-12-25T06:13:29.550Z,8.65
2017-12-25T06:14:38.380Z,8.61
2017-12-25T06:15:47.209Z,8.61
2017-12-25T06:16:56.040Z,8.56
2017-12-25T06:18:04.867Z,8.58
2017-12-25T06:19:14.021Z,8.62
2017-12-25T06:20:22.851Z,8.63
2017-12-25T06:21:31.678Z,8.7
2017-12-25T06:22:40.505Z,8.58
2017-12-25T06:23:49.334Z,8.74
2017-12-25T06:24:58.160Z,8.62
2017-12-25T06:26:06.989Z,8.62
2017-12-25T06:27:15.819Z,8.63
2017-12-25T06:28:24.650Z,8.66
2017-12-25T06:29:33.479Z,8.63
2017-12-25T06:30:42.408Z,8.65
2017-12-25T06:31:51.239Z,8.63
2017-12-25T06:33:00.070Z,8.66
2017-12-25T06:34:08.899Z,8.76
2017-12-25T06:35:17.725Z,8.66
2017-12-25T06:36:26.555Z,8.59
2017-12-25T06:37:35.386Z,8.79
2017-12-25T06:38:44.262Z,8.77
2017-12-25T06:39:53.091Z,8.63
2017-12-25T06:41:01.922Z,8.77
2017-12-25T06:42:10.851Z,8.66
2017-12-25T06:43:19.957Z,8.63
2017-12-25T06:44:28.781Z,8.74
2017-12-25T06:45:37.612Z,8.73
2017-12-25T06:46:46.442Z,8.74
2017-12-25T06:47:55.322Z,8.83
2017-12-25T06:49:04.150Z,8.77
2017-12-25T06:50:12.985Z,8.76
2017-12-25T06:51:21.813Z,8.8
2017-12-25T06:52:30.642Z,8.8
2017-12-25T06:53:39.771Z,8.76
2017-12-25T06:54:48.602Z,8.79
2017-12-25T06:55:57.433Z,8.77
2017-12-25T06:57:06.261Z,8.81
2017-12-25T06:58:15.091Z,8.77
2017-12-25T06:59:24.079Z,8.87
2017-12-25T07:00:32.903Z,8.74
2017-12-25T07:01:41.730Z,8.91
2017-12-25T07:02:50.558Z,8.76
2017-12-25T07:03:59.389Z,8.73
2017-12-25T07:05:08.218Z,8.77
2017-12-25T07:06:17.047Z,8.77
2017-12-25T07:07:25.923Z,8.76
2017-12-25T07:08:34.757Z,8.74
2017-12-25T07:09:43.582Z,8.84
2017-12-25T07:10:52.684Z,8.77
2017-12-25T07:12:01.516Z,8.81
2017-12-25T07:13:10.349Z,8.86
2017-12-25T07:14:19.183Z,8.98
2017-12-25T07:15:28.010Z,8.89
2017-12-25T07:16:37.365Z,8.87
2017-12-25T07:17:46.198Z,8.87
2017-12-25T07:18:55.024Z,8.89
2017-12-25T07:20:03.855Z,8.95
2017-12-25T07:21:12.682Z,8.87
2017-12-25T07:22:21.659Z,8.92
2017-12-25T07:23:30.489Z,8.87
2017-12-25T07:24:39.319Z,8.86
2017-12-25T07:25:48.148Z,8.91
2017-12-25T07:26:56.977Z,9.01
2017-12-25T07:28:05.907Z,8.96
2017-12-25T07:29:15.012Z,8.89
2017-12-25T07:30:23.841Z,8.96
2017-12-25T07:31:32.668Z,8.92
2017-12-25T07:32:41.499Z,8.92
2017-12-25T07:33:50.478Z,9.11
2017-12-25T07:34:59.305Z,8.96
2017-12-25T07:36:08.409Z,8.95
2017-12-25T07:37:17.242Z,8.87
2017-12-25T07:38:26.072Z,8.92
2017-12-25T07:39:35.002Z,8.96
2017-12-25T07:40:43.829Z,8.92
2017-12-25T07:41:52.659Z,8.92
2017-12-25T07:43:01.492Z,8.94
2017-12-25T07:44:10.596Z,8.91
2017-12-25T07:45:19.429Z,8.84
2017-12-25T07:46:28.258Z,8.99
2017-12-25T07:47:37.085Z,8.92
2017-12-25T07:48:45.915Z,8.96
2017-12-25T07:49:54.742Z,8.99
2017-12-25T07:51:03.574Z,8.92
2017-12-25T07:52:12.403Z,8.92
2017-12-25T07:53:21.235Z,8.98
2017-12-25T07:54:30.064Z,8.95
2017-12-25T07:55:38.892Z,8.96
2017-12-25T07:56:47.974Z,8.95
2017-12-25T07:57:56.805Z,8.98
2017-12-25T07:59:05.635Z,8.95
2017-12-25T08:00:14.472Z,8.94
2017-12-25T08:01:23.299Z,8.95
2017-12-25T08:02:32.277Z,9.02
2017-12-25T08:03:41.105Z,8.89
2017-12-25T08:04:49.934Z,8.92
2017-12-25T08:05:58.761Z,8.89
2017-12-25T08:07:07.591Z,8.87
2017-12-25T08:08:16.573Z,9.02
2017-12-25T08:09:25.684Z,9.02
2017-12-25T08:10:34.514Z,8.99
2017-12-25T08:11:43.348Z,8.99
2017-12-25T08:12:52.472Z,8.95
2017-12-25T08:14:01.575Z,8.84
2017-12-25T08:15:10.403Z,8.89
2017-12-25T08:16:19.232Z,8.96
2017-12-25T08:17:28.062Z,8.95
2017-12-25T08:18:36.893Z,8.87
2017-12-25T08:19:45.772Z,8.87
2017-12-25T08:20:54.612Z,8.98
2017-12-25T08:22:03.432Z,8.95
2017-12-25T08:23:12.261Z,8.87
2017-12-25T08:24:21.093Z,8.95
2017-12-25T08:25:29.921Z,8.95
2017-12-25T08:26:38.751Z,8.92
2017-12-25T08:27:47.630Z,8.95
2017-12-25T08:28:56.461Z,8.91
2017-12-25T08:30:05.565Z,8.95
2017-12-25T08:31:14.393Z,8.92
2017-12-25T08:32:23.222Z,8.98
2017-12-25T08:33:32.049Z,8.98
2017-12-25T08:34:40.978Z,8.95
2017-12-25T08:35:49.805Z,8.98
2017-12-25T08:36:58.911Z,8.95
2017-12-25T08:38:07.742Z,8.96
2017-12-25T08:39:16.572Z,9.02
2017-12-25T08:40:25.404Z,8.96
2017-12-25T08:41:34.236Z,8.91
2017-12-25T08:42:43.213Z,8.94
2017-12-25T08:43:52.046Z,8.94
2017-12-25T08:45:00.876Z,8.96
2017-12-25T08:46:09.984Z,8.95
2017-12-25T08:47:18.814Z,8.98
2017-12-25T08:48:28.024Z,8.92
2017-12-25T08:49:36.852Z,8.95
2017-12-25T08:50:45.681Z,9.02
2017-12-25T08:51:54.786Z,8.99
2017-12-25T08:53:03.615Z,8.94
2017-12-25T08:54:12.597Z,8.96
2017-12-25T08:55:21.427Z,8.94
2017-12-25T08:56:30.256Z,8.94
2017-12-25T08:57:39.084Z,8.92
2017-12-25T08:58:47.915Z,8.95
2017-12-25T08:59:56.897Z,9.01
2017-12-25T09:01:05.725Z,8.94
2017-12-25T09:02:14.553Z,8.96
2017-12-25T09:03:23.383Z,8.86
2017-12-25T09:04:32.211Z,8.94
2017-12-25T09:05:41.190Z,8.92
2017-12-25T09:06:50.020Z,8.99
2017-12-25T09:07:58.853Z,9.01
2017-12-25T09:09:07.684Z,9.08
2017-12-25T09:10:16.513Z,8.94
2017-12-25T09:11:25.342Z,8.94
2017-12-25T09:12:34.197Z,8.96
2017-12-25T09:13:43.026Z,8.91
2017-12-25T09:14:51.857Z,8.94
2017-12-25T09:16:00.689Z,8.87
2017-12-25T09:17:09.950Z,8.96
2017-12-25T09:18:19.103Z,8.99
2017-12-25T09:19:27.933Z,8.92
2017-12-25T09:20:36.762Z,8.95
2017-12-25T09:21:45.592Z,8.92
2017-12-25T09:22:54.422Z,8.96
2017-12-25T09:24:03.527Z,8.92
2017-12-25T09:25:12.359Z,8.99
2017-12-25T09:26:21.191Z,8.98
2017-12-25T09:27:30.023Z,8.98
2017-12-25T09:28:39.179Z,8.95
2017-12-25T09:29:48.015Z,8.99
2017-12-25T09:30:56.845Z,8.98
2017-12-25T09:32:05.750Z,8.99
2017-12-25T09:33:14.731Z,8.96
2017-12-25T09:34:23.685Z,8.96
2017-12-25T09:35:32.525Z,8.96
2017-12-25T09:36:41.688Z,8.87
2017-12-25T09:37:50.532Z,8.92
2017-12-25T09:38:59.375Z,8.94
2017-12-25T09:40:08.212Z,8.99
2017-12-25T09:41:17.042Z,8.89
2017-12-25T09:42:25.870Z,9.02
2017-12-25T09:43:34.742Z,8.94
2017-12-25T09:44:43.531Z,9.04
2017-12-25T09:45:52.661Z,8.91
2017-12-25T09:47:01.490Z,9.02
2017-12-25T09:48:10.318Z,9.08
2017-12-25T09:49:19.149Z,8.99
2017-12-25T09:50:27.980Z,9.02
2017-12-25T09:51:36.967Z,9.08
2017-12-25T09:52:45.809Z,9.08
2017-12-25T09:53:54.652Z,9.08
2017-12-25T09:55:03.502Z,9.04
2017-12-25T09:56:12.329Z,9.1
2017-12-25T09:57:21.263Z,9.04
2017-12-25T09:58:30.095Z,9.11
2017-12-25T09:59:39.227Z,9.14
2017-12-25T10:00:48.056Z,9.15
2017-12-25T10:01:56.886Z,9.13
2017-12-25T10:03:05.814Z,9.26
2017-12-25T10:04:14.644Z,9.18
2017-12-25T10:05:23.476Z,9.2
2017-12-25T10:06:32.582Z,9.23
2017-12-25T10:07:41.412Z,9.18
2017-12-25T10:08:50.245Z,9.21
2017-12-25T10:09:59.073Z,9.18
2017-12-25T10:11:07.903Z,9.2
2017-12-25T10:12:16.730Z,9.23
2017-12-25T10:13:25.558Z,9.2
2017-12-25T10:14:34.389Z,9.21
2017-12-25T10:15:43.227Z,9.2
2017-12-25T10:16:52.327Z,9.23
2017-12-25T10:18:01.161Z,9.21
2017-12-25T10:19:09.989Z,9.21
2017-12-25T10:20:18.821Z,9.23
2017-12-25T10:21:27.649Z,9.23
2017-12-25T10:22:36.756Z,9.24
2017-12-25T10:23:45.585Z,9.26
2017-12-25T10:24:54.414Z,9.21
2017-12-25T10:26:03.244Z,9.21
2017-12-25T10:27:12.071Z,9.28
2017-12-25T10:28:20.901Z,9.26
2017-12-25T10:29:29.733Z,9.23
2017-12-25T10:30:38.564Z,9.26
2017-12-25T10:31:47.397Z,9.32
2017-12-25T10:32:56.221Z,9.26
2017-12-25T10:34:05.253Z,9.23
2017-12-25T10:35:14.081Z,9.26
2017-12-25T10:36:22.910Z,9.24
2017-12-25T10:37:31.739Z,9.23
2017-12-25T10:38:40.849Z,9.26
2017-12-25T10:39:49.677Z,9.26
2017-12-25T10:40:58.510Z,9.28
2017-12-25T10:42:07.343Z,9.17
2017-12-25T10:43:16.174Z,9.26
2017-12-25T10:44:25.008Z,9.24
2017-12-25T10:45:33.886Z,9.21
2017-12-25T10:46:42.713Z,9.35
2017-12-25T10:47:51.546Z,9.23
2017-12-25T10:49:00.378Z,9.33
2017-12-25T10:50:09.207Z,9.28
2017-12-25T10:51:18.316Z,9.24
2017-12-25T10:52:27.148Z,9.32
2017-12-25T10:53:35.978Z,9.28
2017-12-25T10:54:44.808Z,9.21
2017-12-25T10:55:53.639Z,9.26
2017-12-25T10:57:02.520Z,9.32
2017-12-25T10:58:11.350Z,9.33
2017-12-25T10:59:20.189Z,9.33
2017-12-25T11:00:29.016Z,9.31
2017-12-25T11:01:37.848Z,9.23
2017-12-25T11:02:46.828Z,9.29
2017-12-25T11:03:55.659Z,9.26
2017-12-25T11:05:04.489Z,9.32
2017-12-25T11:06:13.320Z,9.33
2017-12-25T11:07:22.152Z,9.31
2017-12-25T11:08:30.984Z,9.23
2017-12-25T11:09:40.095Z,9.31
2017-12-25T11:10:48.925Z,9.36
2017-12-25T11:11:57.756Z,9.32
2017-12-25T11:13:06.589Z,9.28
2017-12-25T11:14:15.419Z,9.32
2017-12-25T11:15:24.248Z,9.31
2017-12-25T11:16:33.079Z,9.36
2017-12-25T11:17:41.911Z,9.32
2017-12-25T11:18:50.743Z,9.29
2017-12-25T11:19:59.681Z,9.28
2017-12-25T11:21:08.513Z,9.26
2017-12-25T11:22:17.344Z,9.29
2017-12-25T11:23:26.176Z,9.26
2017-12-25T11:24:35.285Z,9.23
2017-12-25T11:25:44.410Z,9.26
2017-12-25T11:26:53.241Z,9.32
2017-12-25T11:28:02.076Z,9.21
2017-12-25T11:29:11.215Z,9.28
2017-12-25T11:30:20.018Z,9.23
2017-12-25T11:31:29.222Z,9.28
2017-12-25T11:32:38.052Z,9.28
2017-12-25T11:33:46.879Z,9.24
2017-12-25T11:34:55.710Z,9.28
2017-12-25T11:36:04.538Z,9.39
2017-12-25T11:37:13.520Z,9.42
2017-12-25T11:38:22.349Z,9.38
2017-12-25T11:39:31.181Z,9.38
2017-12-25T11:40:40.047Z,9.32
2017-12-25T11:41:48.842Z,9.26
2017-12-25T11:42:57.724Z,9.33
2017-12-25T11:44:06.553Z,9.36
2017-12-25T11:45:15.385Z,9.31
2017-12-25T11:46:24.215Z,9.32
2017-12-25T11:47:33.333Z,9.29
2017-12-25T11:48:42.486Z,9.33
2017-12-25T11:49:51.317Z,9.23
2017-12-25T11:51:00.150Z,9.24
2017-12-25T11:52:08.981Z,9.33
2017-12-25T11:53:17.804Z,9.31
2017-12-25T11:54:26.787Z,9.29
2017-12-25T11:55:35.623Z,9.24
2017-12-25T11:56:44.452Z,9.24
2017-12-25T11:57:53.279Z,9.26
2017-12-25T11:59:02.111Z,9.23
2017-12-25T12:00:11.243Z,9.31
2017-12-25T12:01:20.351Z,9.23
2017-12-25T12:02:29.180Z,9.23
2017-12-25T12:03:38.292Z,9.21
2017-12-25T12:04:47.124Z,9.26
2017-12-25T12:05:56.280Z,9.33
2017-12-25T12:07:05.111Z,9.24
2017-12-25T12:08:13.939Z,9.36
2017-12-25T12:09:22.773Z,9.29
2017-12-25T12:10:31.599Z,9.32
2017-12-25T12:11:40.427Z,9.33
2017-12-25T12:12:49.260Z,9.28
2017-12-25T12:13:58.090Z,9.32
2017-12-25T12:15:06.919Z,9.33
2017-12-25T12:16:15.747Z,9.33
2017-12-25T12:17:25.155Z,9.36
2017-12-25T12:18:33.982Z,9.33
2017-12-25T12:19:43.086Z,9.32
2017-12-25T12:20:51.919Z,9.39
2017-12-25T12:22:01.020Z,9.38
2017-12-25T12:23:09.851Z,9.36
2017-12-25T12:24:18.687Z,9.4
2017-12-25T12:25:27.520Z,9.35
2017-12-25T12:26:36.347Z,9.36
2017-12-25T12:27:45.175Z,9.32
2017-12-25T12:28:54.441Z,9.39
2017-12-25T12:30:03.218Z,9.32
2017-12-25T12:31:12.047Z,9.32
2017-12-25T12:32:20.876Z,9.35
2017-12-25T12:33:29.711Z,9.35
2017-12-25T12:34:38.840Z,9.35
2017-12-25T12:35:47.669Z,9.32
2017-12-25T12:36:56.551Z,9.31
2017-12-25T12:38:05.333Z,9.4
2017-12-25T12:39:14.164Z,9.4
2017-12-25T12:40:23.142Z,9.46
2017-12-25T12:41:31.969Z,9.42
2017-12-25T12:42:40.800Z,9.39
2017-12-25T12:43:49.632Z,9.42
2017-12-25T12:44:58.495Z,9.38
2017-12-25T12:46:07.444Z,9.36
2017-12-25T12:47:16.272Z,9.42
2017-12-25T12:48:25.102Z,9.33
2017-12-25T12:49:33.933Z,9.39
2017-12-25T12:50:42.760Z,9.42
2017-12-25T12:51:51.648Z,9.4
2017-12-25T12:53:00.860Z,9.33
2017-12-25T12:54:09.692Z,9.36
2017-12-25T12:55:18.522Z,9.38
2017-12-25T12:56:27.351Z,9.4
2017-12-25T12:57:36.281Z,9.4
2017-12-25T12:58:45.110Z,9.42
2017-12-25T12:59:53.954Z,9.38
2017-12-25T13:01:02.834Z,9.42
2017-12-25T13:02:11.664Z,9.4
2017-12-25T13:03:20.743Z,9.42
2017-12-25T13:04:29.575Z,9.4
2017-12-25T13:05:38.405Z,9.42
2017-12-25T13:06:47.237Z,9.43
2017-12-25T13:07:56.070Z,9.43
2017-12-25T13:09:04.903Z,9.39
2017-12-25T13:10:13.736Z,9.42
2017-12-25T13:11:22.565Z,9.33
2017-12-25T13:12:31.394Z,9.36
2017-12-25T13:13:40.225Z,9.39
2017-12-25T13:14:49.206Z,9.35
2017-12-25T13:15:58.037Z,9.38
2017-12-25T13:17:06.865Z,9.4
2017-12-25T13:18:15.694Z,9.38
2017-12-25T13:19:24.524Z,9.32
2017-12-25T13:20:33.456Z,9.32
2017-12-25T13:21:42.290Z,9.33
2017-12-25T13:22:51.122Z,9.31
2017-12-25T13:23:59.951Z,9.35
2017-12-25T13:25:08.780Z,9.32
2017-12-25T13:26:17.712Z,9.33
2017-12-25T13:27:26.544Z,9.32
2017-12-25T13:28:35.650Z,9.31
2017-12-25T13:29:44.479Z,9.38
2017-12-25T13:30:53.310Z,9.32
2017-12-25T13:32:02.517Z,9.36
2017-12-25T13:33:11.621Z,9.31
2017-12-25T13:34:20.452Z,9.23
2017-12-25T13:35:29.282Z,9.28
2017-12-25T13:36:38.117Z,9.35
2017-12-25T13:37:47.095Z,9.33
2017-12-25T13:38:55.926Z,9.23
2017-12-25T13:40:05.028Z,9.32
2017-12-25T13:41:13.856Z,9.29
2017-12-25T13:42:22.687Z,9.33
2017-12-25T13:43:31.617Z,9.33
2017-12-25T13:44:40.468Z,9.36
2017-12-25T13:45:49.296Z,9.36
2017-12-25T13:46:58.125Z,9.29
2017-12-25T13:48:06.956Z,9.28
2017-12-25T13:49:15.936Z,9.39
2017-12-25T13:50:24.767Z,9.18
2017-12-25T13:51:33.883Z,9.33
2017-12-25T13:52:42.712Z,9.28
2017-12-25T13:53:51.541Z,9.33
2017-12-25T13:55:00.675Z,9.2
2017-12-25T13:56:09.509Z,9.23
2017-12-25T13:57:18.340Z,9.18
2017-12-25T13:58:27.449Z,9.23
2017-12-25T13:59:36.278Z,9.18
2017-12-25T14:00:45.163Z,9.18
2017-12-25T14:01:53.993Z,9.26
2017-12-25T14:03:02.819Z,9.24
2017-12-25T14:04:11.653Z,9.2
2017-12-25T14:05:20.480Z,9.23
2017-12-25T14:06:29.310Z,9.23
2017-12-25T14:07:38.139Z,9.26
2017-12-25T14:08:46.977Z,9.18
2017-12-25T14:09:55.814Z,9.2
2017-12-25T14:11:04.644Z,9.18
2017-12-25T14:12:13.475Z,9.21
2017-12-25T14:13:22.605Z,9.17
2017-12-25T14:14:31.435Z,9.26
2017-12-25T14:15:40.265Z,9.24
2017-12-25T14:16:49.101Z,9.18
2017-12-25T14:17:57.978Z,9.14
2017-12-25T14:19:07.085Z,9.24
2017-12-25T14:20:15.911Z,9.08
2017-12-25T14:21:24.743Z,9.17
2017-12-25T14:22:33.574Z,9.08
2017-12-25T14:23:42.903Z,9.08
2017-12-25T14:24:51.733Z,9.1
2017-12-25T14:26:00.565Z,9.05
2017-12-25T14:27:09.394Z,9.08
2017-12-25T14:28:18.224Z,9.11
2017-12-25T14:29:27.102Z,9.02
2017-12-25T14:30:35.932Z,9.05
2017-12-25T14:31:44.763Z,9.08
2017-12-25T14:32:53.596Z,8.87
2017-12-25T14:34:02.425Z,8.91
2017-12-25T14:35:11.356Z,8.95
2017-12-25T14:36:20.187Z,9.01
2017-12-25T14:37:29.015Z,8.95
2017-12-25T14:38:37.843Z,8.89
2017-12-25T14:39:46.675Z,8.91
2017-12-25T14:40:55.510Z,8.95
2017-12-25T14:42:04.340Z,8.92
2017-12-25T14:43:13.171Z,8.87
2017-12-25T14:44:22.003Z,8.84
2017-12-25T14:45:30.833Z,8.8
2017-12-25T14:46:39.962Z,8.86
2017-12-25T14:47:48.793Z,8.77
2017-12-25T14:48:57.901Z,8.73
2017-12-25T14:50:06.732Z,8.96
2017-12-25T14:51:15.564Z,8.87
2017-12-25T14:52:24.393Z,8.74
2017-12-25T14:53:33.222Z,8.77
2017-12-25T14:54:42.054Z,8.8
2017-12-25T14:55:50.887Z,8.83
2017-12-25T14:56:59.710Z,8.83
2017-12-25T14:58:09.195Z,8.8
2017-12-25T14:59:18.297Z,8.74
2017-12-25T15:00:27.405Z,8.77
2017-12-25T15:01:36.230Z,8.8
2017-12-25T15:02:45.059Z,8.74
2017-12-25T15:03:54.042Z,8.77
2017-12-25T15:05:02.875Z,8.77
2017-12-25T15:06:11.702Z,8.76
2017-12-25T15:07:20.533Z,8.81
2017-12-25T15:08:29.362Z,8.79
2017-12-25T15:09:38.193Z,8.84
2017-12-25T15:10:47.022Z,8.79
2017-12-25T15:11:55.853Z,8.79
2017-12-25T15:13:04.683Z,8.76
2017-12-25T15:14:13.511Z,8.74
2017-12-25T15:15:22.391Z,8.73
2017-12-25T15:16:31.222Z,8.74
2017-12-25T15:17:40.054Z,8.7